»·PEaware :: N282BC KSBP-KONT

N282BC :: KSBP-KONT

FLIGHT INFORMATION

Flight Status: Arrived
Operator: Privately registered:
United States
More flights under this callsign
Pilot: Lev Beriv (11997)
Aircraft: CESSNA 208 CARAVAN
(C208)
More flights by this aircraft type
Origin: KSBP San Luis Co Regl
United States
Destination: KONT Ontario Intl
United States
More flights between these airports :: More routes between these airports
Route: +RZS V186 PDZ
File this flight plan on PilotEdge
Remarks: TEC route SBAN51
Altitude:
(Current/Filed)
7,000ft
Speed:
(Current/Filed)
186kts
Departed: 17-Jun-17 07:27 PM
Arrived: 17-Jun-17 08:43 PM
Distance/Time
Traveled:
166nm/1:16
Distance/Time
To Go:
Arrived

Flight Plot

Page will automatically refresh every two minutes.


Map Options




Map Legend


Flown Route
Filed Route
Departure Airport
Arrival Airport
Navaid (VOR, NDB)
Fix

Horizontal Profiles

Position Reports

Time Latitude Longitude Heading Altitude Ground
Speed
17-Jun-17 19:04 35.238837 -120.641185 350 188ft 0kts
17-Jun-17 19:05 35.238837 -120.641185 350 188ft 0kts
17-Jun-17 19:06 35.238837 -120.641185 350 188ft 0kts
17-Jun-17 19:07 35.238837 -120.641185 350 188ft 0kts
17-Jun-17 19:08 35.238837 -120.641185 350 188ft 0kts
17-Jun-17 19:09 35.238837 -120.641185 350 188ft 0kts
17-Jun-17 19:10 35.238837 -120.641185 350 188ft 0kts
17-Jun-17 19:11 35.238837 -120.641185 350 188ft 0kts
17-Jun-17 19:12 35.238837 -120.641185 350 188ft 0kts
17-Jun-17 19:13 35.238837 -120.641185 350 188ft 0kts
17-Jun-17 19:14 35.238837 -120.641185 350 188ft 0kts
17-Jun-17 19:15 35.238837 -120.641185 350 188ft 0kts
17-Jun-17 19:16 35.238837 -120.641185 350 188ft 0kts
17-Jun-17 19:17 35.238837 -120.641185 350 188ft 0kts
17-Jun-17 19:18 35.238837 -120.641185 350 188ft 0kts
17-Jun-17 19:20 35.238837 -120.641185 350 188ft 0kts
17-Jun-17 19:21 35.238837 -120.641185 350 188ft 0kts
17-Jun-17 19:22 35.238864 -120.641348 221 187ft 0kts
17-Jun-17 19:23 35.238864 -120.641348 221 187ft 0kts
17-Jun-17 19:24 35.238864 -120.641348 221 187ft 0kts
17-Jun-17 19:25 35.238840 -120.641374 220 187ft 1kts
17-Jun-17 19:26 35.236126 -120.636979 126 204ft 26kts
17-Jun-17 19:27 35.233212 -120.632422 214 214ft 0kts
17-Jun-17 19:28 35.233212 -120.632422 214 214ft 0kts
17-Jun-17 19:29 35.233212 -120.632422 214 214ft 0kts
17-Jun-17 19:30 35.235191 -120.637268 304 204ft 86kts
17-Jun-17 19:31 35.250906 -120.665403 300 1947ft 99kts
17-Jun-17 19:32 35.264991 -120.693391 300 3708ft 97kts
17-Jun-17 19:33 35.278245 -120.721294 291 5333ft 95kts
17-Jun-17 19:34 35.260338 -120.727930 111 6811ft 107kts
17-Jun-17 19:35 35.243458 -120.683726 124 6998ft 174kts
17-Jun-17 19:36 35.211178 -120.637424 132 6989ft 176kts
17-Jun-17 19:37 35.178066 -120.595264 133 6992ft 170kts
17-Jun-17 19:38 35.144837 -120.553681 133 6997ft 170kts
17-Jun-17 19:39 35.111697 -120.512405 133 7003ft 171kts
17-Jun-17 19:40 35.078489 -120.471050 133 7012ft 171kts
17-Jun-17 19:41 35.045126 -120.429543 133 7017ft 171kts
17-Jun-17 19:42 35.011846 -120.388199 133 7019ft 171kts
17-Jun-17 19:43 34.979635 -120.348245 133 7019ft 171kts
17-Jun-17 19:44 34.947387 -120.308309 133 7019ft 170kts
17-Jun-17 19:45 34.914146 -120.267172 133 7019ft 170kts
17-Jun-17 19:46 34.883713 -120.229543 133 7017ft 170kts
17-Jun-17 19:47 34.850448 -120.188432 133 7014ft 171kts
17-Jun-17 19:48 34.816940 -120.147120 133 7012ft 171kts
17-Jun-17 19:49 34.783332 -120.105739 134 7010ft 172kts
17-Jun-17 19:50 34.749642 -120.064309 134 7009ft 172kts
17-Jun-17 19:51 34.709172 -120.034330 155 7009ft 173kts
17-Jun-17 19:52 34.665532 -120.009752 155 7008ft 173kts
17-Jun-17 19:53 34.622011 -119.985229 155 7008ft 173kts
17-Jun-17 19:54 34.591280 -119.943731 117 7007ft 172kts
17-Jun-17 19:55 34.568050 -119.893121 118 7005ft 172kts
17-Jun-17 19:56 34.544221 -119.842820 118 7003ft 171kts
17-Jun-17 19:57 34.520584 -119.793206 119 7001ft 171kts
17-Jun-17 19:58 34.495616 -119.744400 122 7000ft 171kts
17-Jun-17 19:59 34.469447 -119.696155 122 7000ft 171kts
17-Jun-17 20:00 34.443394 -119.648168 122 7000ft 171kts
17-Jun-17 20:01 34.417201 -119.599960 122 7000ft 171kts
17-Jun-17 20:02 34.391116 -119.552025 122 7000ft 171kts
17-Jun-17 20:03 34.365017 -119.504152 122 6989ft 172kts
17-Jun-17 20:04 34.338739 -119.455992 122 6987ft 171kts
17-Jun-17 20:05 34.318414 -119.406110 85 6992ft 167kts
17-Jun-17 20:06 34.322267 -119.350021 81 6990ft 167kts
17-Jun-17 20:07 34.326163 -119.298647 82 6990ft 167kts
17-Jun-17 20:08 34.330405 -119.242664 82 6990ft 167kts
17-Jun-17 20:09 34.334629 -119.186521 82 6990ft 167kts
17-Jun-17 20:10 34.338813 -119.130570 82 6990ft 168kts
17-Jun-17 20:11 34.343001 -119.074288 82 6990ft 168kts
17-Jun-17 20:12 34.347152 -119.018113 82 6991ft 168kts
17-Jun-17 20:13 34.351283 -118.961734 82 6991ft 167kts
17-Jun-17 20:14 34.355371 -118.905785 82 6991ft 167kts
17-Jun-17 20:15 34.347012 -118.851261 110 6991ft 170kts
17-Jun-17 20:16 34.328930 -118.798389 110 6991ft 169kts
17-Jun-17 20:17 34.311239 -118.745968 113 6987ft 165kts
17-Jun-17 20:18 34.293936 -118.695876 113 6982ft 160kts
17-Jun-17 20:19 34.277059 -118.646705 112 6978ft 159kts
17-Jun-17 20:20 34.260801 -118.599288 112 6983ft 159kts
17-Jun-17 20:21 34.244910 -118.553005 111 6981ft 159kts
17-Jun-17 20:22 34.229531 -118.508139 112 6981ft 159kts
17-Jun-17 20:23 34.214838 -118.461812 109 6982ft 159kts
17-Jun-17 20:24 34.201119 -118.416551 110 6982ft 159kts
17-Jun-17 20:25 34.186950 -118.369858 110 6981ft 159kts
17-Jun-17 20:26 34.174749 -118.329728 110 6982ft 159kts
17-Jun-17 20:27 34.160846 -118.283989 111 6991ft 159kts
17-Jun-17 20:28 34.147183 -118.239112 111 6993ft 159kts
17-Jun-17 20:29 34.133481 -118.194163 111 6995ft 159kts
17-Jun-17 20:30 34.119451 -118.148847 111 6996ft 159kts
17-Jun-17 20:31 34.105040 -118.101881 111 6990ft 160kts
17-Jun-17 20:32 34.090832 -118.055571 111 6992ft 160kts
17-Jun-17 20:33 34.076579 -118.009164 112 6999ft 160kts
17-Jun-17 20:34 34.061807 -117.961151 112 7003ft 160kts
17-Jun-17 20:35 34.046654 -117.911961 112 7006ft 160kts
17-Jun-17 20:36 34.038773 -117.862611 91 6582ft 156kts
17-Jun-17 20:37 34.039728 -117.814011 91 5715ft 156kts
17-Jun-17 20:38 34.040841 -117.766305 91 5012ft 151kts
17-Jun-17 20:39 34.042159 -117.723018 91 4995ft 136kts
17-Jun-17 20:40 34.043642 -117.681009 92 4990ft 132kts
17-Jun-17 20:41 34.039574 -117.639361 98 4446ft 130kts
17-Jun-17 20:41 34.038332 -117.603066 95 3713ft 141kts
17-Jun-17 20:42 34.038457 -117.556293 91 2286ft 129kts
17-Jun-17 20:44 34.054568 -117.556905 273 1375ft 80kts
17-Jun-17 20:44 34.054908 -117.577089 267 1066ft 78kts
17-Jun-17 20:45 34.054961 -117.595350 270 921ft 39kts
17-Jun-17 20:46 34.056183 -117.599711 354 925ft 9kts
17-Jun-17 20:47 34.059014 -117.595213 89 935ft 36kts
17-Jun-17 20:48 34.059835 -117.589898 269 940ft 0kts
17-Jun-17 20:49 34.059835 -117.589898 269 940ft 0kts
17-Jun-17 20:50 34.059835 -117.589898 269 940ft 0kts
17-Jun-17 20:51 34.059835 -117.589898 269 940ft 0kts
17-Jun-17 20:52 34.059835 -117.589898 269 940ft 0kts
17-Jun-17 20:53 34.059835 -117.589898 269 940ft 0kts
17-Jun-17 20:54 34.059835 -117.589898 269 940ft 0kts
17-Jun-17 20:55 34.059835 -117.589898 269 940ft 0kts
17-Jun-17 20:56 34.059835 -117.589898 269 940ft 0kts
17-Jun-17 20:57 34.059835 -117.589898 269 940ft 0kts
17-Jun-17 20:58 34.059835 -117.589898 269 940ft 0kts

Navigation Log

Ident Type
1. KSBP Airport
2. RZS Navaid
3. ZIQOR Fix
4. DEANO Fix
5. HENER Fix
6. FIM Navaid
7. SESPE Fix
8. VNY Navaid
9. DARTS Fix
10. PURMS Fix
11. ELMOO Fix
12. ITSME Fix
13. PIRRO Fix
14. ADAMM Fix
15. BAYJY Fix
16. TIFNI Fix
17. PDZ Navaid
18. KONT Airport